Time;durP1;ratioP1;P1;durP2;ratioP2;P2;SDS_P1;SDS_P2;PMS_P1;PMS_P2;Temp;Humidity;BMP_temperature;BMP_pressure;BME280_temperature;BME280_humidity;BME280_pressure;Samples;Min_cycle;Max_cycle;Signal;HPM_P1;HPM_P2
2022/08/04 00:02:21;;;;;;;2.33;1.50;;;;;;;;;;5029686;28;20124;-58
2022/08/04 00:04:55;;;;;;;;;;;;;;;;;;5034293;28;20296;-58
2022/08/04 00:07:55;;;;;;;2.63;1.90;;;;;;;;;;5032057;28;19935;-59
2022/08/04 00:10:21;;;;;;;2.83;1.70;;;;;;;;;;5030591;28;20040;-58
2022/08/04 00:12:49;;;;;;;3.15;1.52;;;;;;;;;;5031633;28;20442;-59
2022/08/04 00:15:16;;;;;;;2.88;1.70;;;;;;;;;;5036994;28;20033;-58
2022/08/04 00:17:58;;;;;;;1.73;1.60;;;;;;;;;;5030013;28;20048;-59
2022/08/04 00:20:29;;;;;;;2.70;1.55;;;;;;;;;;5031134;28;20109;-59
2022/08/04 00:22:55;;;;;;;3.00;1.65;;;;;;;;;;5031049;28;20517;-58
2022/08/04 00:25:21;;;;;;;2.20;1.73;;;;;;;;;;5033223;28;20029;-58
2022/08/04 00:27:47;;;;;;;3.63;1.75;;;;;;;;;;5030585;28;20044;-58
2022/08/04 00:30:13;;;;;;;2.58;1.65;;;;;;;;;;5032261;28;20036;-58
2022/08/04 00:32:42;;;;;;;5.07;1.67;;;;;;;;;;5042109;28;20032;-59
2022/08/04 00:35:13;;;;;;;2.90;1.67;;;;;;;;;;5036812;28;20071;-58
2022/08/04 00:37:39;;;;;;;1.88;1.50;;;;;;;;;;5030770;28;20746;-58
2022/08/04 00:40:34;;;;;;;2.15;1.40;;;;;;;;;;5029669;28;20124;-58
2022/08/04 00:43:07;;;;;;;2.75;1.50;;;;;;;;;;5011410;28;20053;-58
2022/08/04 00:45:42;;;;;;;3.78;1.67;;;;;;;;;;5030352;28;20079;-58
2022/08/04 00:48:23;;;;;;;3.60;1.70;;;;;;;;;;5033692;28;20048;-58
2022/08/04 00:51:07;;;;;;;2.42;1.70;;;;;;;;;;5037197;28;20029;-58
2022/08/04 00:54:00;;;;;;;2.78;1.70;;;;;;;;;;5029153;28;20108;-59
2022/08/04 00:56:57;;;;;;;4.60;1.80;;;;;;;;;;5031397;28;20022;-58
2022/08/04 00:59:58;;;;;;;1.92;1.63;;;;;;;;;;5023332;28;20407;-58
2022/08/04 01:02:42;;;;;;;3.75;1.52;;;;;;;;;;5032230;28;20088;-58
2022/08/04 01:05:33;;;;;;;3.22;1.83;;;;;;;;;;5030171;28;20037;-58
2022/08/04 01:08:14;;;;;;;2.40;1.67;;;;;;;;;;5023489;28;20037;-58
2022/08/04 01:10:45;;;;;;;3.45;1.67;;;;;;;;;;5032461;28;20128;-58
2022/08/04 01:13:19;;;;;;;2.15;1.70;;;;;;;;;;5029995;28;20021;-58
2022/08/04 01:15:51;;;;;;;4.63;1.70;;;;;;;;;;5024924;28;20491;-58
2022/08/04 01:18:24;;;;;;;2.75;1.88;;;;;;;;;;5030189;28;20041;-58
2022/08/04 01:21:10;;;;;;;2.80;2.00;;;;;;;;;;5030424;28;20044;-58
2022/08/04 01:24:25;;;;;;;4.57;2.03;;;;;;;;;;5010598;28;20041;-58
2022/08/04 01:27:08;;;;;;;3.63;2.15;;;;;;;;;;4991561;28;20037;-58
2022/08/04 01:29:39;;;;;;;4.07;1.88;;;;;;;;;;5026277;28;20045;-58
2022/08/04 01:32:16;;;;;;;2.20;1.98;;;;;;;;;;5028161;28;20030;-58
2022/08/04 01:34:50;;;;;;;2.58;2.20;;;;;;;;;;5026476;28;20483;-58
2022/08/04 01:37:34;;;;;;;4.57;2.20;;;;;;;;;;5030125;28;20029;-58
2022/08/04 01:40:06;;;;;;;2.67;2.10;;;;;;;;;;5030807;28;20052;-59
2022/08/04 01:42:33;;;;;;;2.33;1.85;;;;;;;;;;5029117;28;20489;-58
2022/08/04 01:45:05;;;;;;;3.78;2.22;;;;;;;;;;5028980;28;20022;-58
2022/08/04 01:47:34;;;;;;;5.00;2.20;;;;;;;;;;5027488;28;20155;-58
2022/08/04 01:50:18;;;;;;;3.10;2.25;;;;;;;;;;5029892;28;20105;-59
2022/08/04 01:52:45;;;;;;;2.78;2.38;;;;;;;;;;5036709;28;20048;-58
2022/08/04 01:55:13;;;;;;;6.40;3.00;;;;;;;;;;5029864;28;20026;-58
2022/08/04 01:57:43;;;;;;;4.22;2.50;;;;;;;;;;5029123;28;20069;-58
2022/08/04 02:00:11;;;;;;;3.90;2.78;;;;;;;;;;5029891;28;20542;-58
2022/08/04 02:02:36;;;;;;;3.70;2.20;;;;;;;;;;5028021;28;20108;-58
2022/08/04 02:05:02;;;;;;;2.75;2.05;;;;;;;;;;5029988;28;20034;-58
2022/08/04 02:08:02;;;;;;;2.10;1.83;;;;;;;;;;5034539;28;20041;-59
2022/08/04 02:10:27;;;;;;;3.10;1.98;;;;;;;;;;5028542;28;20033;-59
2022/08/04 02:13:14;;;;;;;1.90;1.70;;;;;;;;;;5029060;28;20539;-59
2022/08/04 02:15:39;;;;;;;3.10;1.70;;;;;;;;;;5028843;28;20029;-58
2022/08/04 02:18:10;;;;;;;4.82;1.90;;;;;;;;;;5028737;28;20036;-58
2022/08/04 02:20:37;;;;;;;2.28;1.83;;;;;;;;;;5021577;28;20411;-58
2022/08/04 02:23:13;;;;;;;1.98;1.75;;;;;;;;;;5027397;28;20026;-58
2022/08/04 02:25:44;;;;;;;3.08;1.80;;;;;;;;;;5028028;28;20026;-58
2022/08/04 02:28:25;;;;;;;3.47;1.70;;;;;;;;;;5034673;28;20072;-58
2022/08/04 02:31:11;;;;;;;2.85;1.70;;;;;;;;;;5030862;28;20021;-59
2022/08/04 02:33:42;;;;;;;2.47;1.80;;;;;;;;;;5029038;28;20041;-58
2022/08/04 02:36:12;;;;;;;4.63;2.00;;;;;;;;;;5028919;28;20167;-58
2022/08/04 02:38:41;;;;;;;2.75;1.80;;;;;;;;;;5027966;28;20021;-58
2022/08/04 02:41:08;;;;;;;3.50;1.80;;;;;;;;;;5031454;28;20036;-58
2022/08/04 02:43:35;;;;;;;2.85;2.08;;;;;;;;;;5029616;28;20426;-58
2022/08/04 02:46:02;;;;;;;8.60;5.25;;;;;;;;;;5029206;28;20029;-58
2022/08/04 02:48:31;;;;;;;7.22;4.07;;;;;;;;;;5027745;28;20045;-58
2022/08/04 02:50:58;;;;;;;5.18;3.22;;;;;;;;;;5028865;28;20025;-58
2022/08/04 02:53:25;;;;;;;3.15;2.00;;;;;;;;;;5029261;28;20402;-60
2022/08/04 02:55:53;;;;;;;2.30;1.85;;;;;;;;;;5032384;28;20036;-58
2022/08/04 02:58:19;;;;;;;1.88;1.70;;;;;;;;;;5028583;28;20032;-58
2022/08/04 03:00:45;;;;;;;2.30;1.77;;;;;;;;;;5028405;28;20061;-58
2022/08/04 03:03:28;;;;;;;4.03;1.83;;;;;;;;;;5030800;28;20107;-58
2022/08/04 03:06:12;;;;;;;4.80;2.10;;;;;;;;;;5023273;28;20277;-58
2022/08/04 03:09:18;;;;;;;3.80;2.10;;;;;;;;;;5034715;28;20025;-58
2022/08/04 03:11:56;;;;;;;3.25;2.38;;;;;;;;;;5028514;28;20025;-59
2022/08/04 03:14:34;;;;;;;3.55;2.30;;;;;;;;;;5036360;28;20026;-58
2022/08/04 03:17:37;;;;;;;4.10;2.30;;;;;;;;;;5040087;28;20025;-59
2022/08/04 03:20:40;;;;;;;6.95;3.67;;;;;;;;;;5032842;28;20069;-59
2022/08/04 03:23:25;;;;;;;4.70;3.90;;;;;;;;;;5032687;28;20515;-59
2022/08/04 03:26:08;;;;;;;5.97;4.32;;;;;;;;;;5037101;28;20101;-59
2022/08/04 03:29:18;;;;;;;5.07;4.13;;;;;;;;;;5035537;28;20521;-59
2022/08/04 03:32:08;;;;;;;6.22;4.00;;;;;;;;;;4991236;28;20034;-58
2022/08/04 03:34:45;;;;;;;7.43;4.43;;;;;;;;;;5035139;28;20083;-58
2022/08/04 03:37:26;;;;;;;6.30;4.25;;;;;;;;;;5034764;28;20395;-58
2022/08/04 03:40:20;;;;;;;10.05;4.25;;;;;;;;;;5030828;28;20022;-60
2022/08/04 03:43:04;;;;;;;5.55;4.60;;;;;;;;;;5032050;28;20029;-58
2022/08/04 03:45:45;;;;;;;7.85;4.45;;;;;;;;;;5035971;28;20090;-58
2022/08/04 03:48:29;;;;;;;4.95;3.90;;;;;;;;;;5040315;28;20115;-58
2022/08/04 03:54:08;;;;;;;5.95;4.38;;;;;;;;;;5035839;28;20568;-58
2022/08/04 03:56:43;;;;;;;8.57;5.03;;;;;;;;;;5034987;28;20033;-59
2022/08/04 03:59:26;;;;;;;5.43;4.72;;;;;;;;;;5039017;28;20036;-58
2022/08/04 04:01:55;;;;;;;5.32;4.20;;;;;;;;;;5029503;28;20397;-59
2022/08/04 04:04:39;;;;;;;5.70;3.67;;;;;;;;;;5035121;28;20040;-59
2022/08/04 04:07:39;;;;;;;8.80;3.53;;;;;;;;;;5031273;28;20111;-59
2022/08/04 04:10:16;;;;;;;4.78;3.50;;;;;;;;;;5031783;28;20025;-59
2022/08/04 04:13:01;;;;;;;3.67;3.22;;;;;;;;;;5037270;28;20025;-59
2022/08/04 04:15:29;;;;;;;6.50;3.20;;;;;;;;;;5034231;28;20034;-58
2022/08/04 04:18:16;;;;;;;5.40;3.58;;;;;;;;;;5034103;28;20032;-59
2022/08/04 04:20:53;;;;;;;6.22;3.33;;;;;;;;;;5023299;28;20029;-59
2022/08/04 04:23:21;;;;;;;4.97;3.88;;;;;;;;;;5035226;28;20029;-59
2022/08/04 04:25:47;;;;;;;4.85;3.67;;;;;;;;;;5032827;28;20025;-60
2022/08/04 04:28:51;;;;;;;3.67;2.92;;;;;;;;;;5029400;28;20518;-60
2022/08/04 04:31:28;;;;;;;6.55;2.65;;;;;;;;;;5023625;28;20052;-60
2022/08/04 04:34:37;;;;;;;3.97;2.50;;;;;;;;;;5030308;28;20033;-60
2022/08/04 04:37:40;;;;;;;2.60;2.40;;;;;;;;;;5029026;28;20029;-61
2022/08/04 04:40:32;;;;;;;5.30;2.80;;;;;;;;;;5034054;28;20060;-59
2022/08/04 04:43:26;;;;;;;3.75;2.60;;;;;;;;;;5026723;28;20037;-59
2022/08/04 04:46:05;;;;;;;3.92;2.40;;;;;;;;;;5030449;28;20025;-59
2022/08/04 04:48:45;;;;;;;5.55;2.67;;;;;;;;;;5037294;28;20430;-59
2022/08/04 04:51:21;;;;;;;4.05;2.58;;;;;;;;;;5033436;28;20445;-59
2022/08/04 04:53:56;;;;;;;3.75;2.78;;;;;;;;;;5029987;28;20030;-59
2022/08/04 04:56:29;;;;;;;4.38;2.95;;;;;;;;;;5031311;28;20029;-59
2022/08/04 04:58:57;;;;;;;5.85;2.85;;;;;;;;;;5034280;28;20037;-59
2022/08/04 05:01:55;;;;;;;3.75;2.60;;;;;;;;;;5030228;28;20044;-60
2022/08/04 05:04:42;;;;;;;3.47;2.67;;;;;;;;;;5012685;28;20079;-59
2022/08/04 05:07:32;;;;;;;7.25;2.80;;;;;;;;;;5030371;28;20021;-59
2022/08/04 05:10:18;;;;;;;5.57;2.97;;;;;;;;;;5025711;28;20522;-61
2022/08/04 05:13:11;;;;;;;3.25;2.95;;;;;;;;;;5029529;28;20506;-60
2022/08/04 05:15:41;;;;;;;6.68;3.38;;;;;;;;;;5022286;28;20021;-59
2022/08/04 05:18:11;;;;;;;6.68;3.10;;;;;;;;;;5030006;28;20384;-59
2022/08/04 05:20:41;;;;;;;4.32;2.85;;;;;;;;;;5028494;28;20017;-59
2022/08/04 05:23:28;;;;;;;4.85;2.80;;;;;;;;;;5032997;28;20029;-59
2022/08/04 05:26:06;;;;;;;5.82;3.30;;;;;;;;;;5027712;28;20041;-59
2022/08/04 05:28:42;;;;;;;5.38;3.00;;;;;;;;;;5032092;28;20093;-59
2022/08/04 05:31:17;;;;;;;4.45;2.92;;;;;;;;;;5033119;28;20079;-59
2022/08/04 05:33:55;;;;;;;8.85;3.25;;;;;;;;;;5032460;28;20035;-60
2022/08/04 05:36:25;;;;;;;6.93;3.20;;;;;;;;;;5029832;28;20492;-60
2022/08/04 05:38:54;;;;;;;15.10;7.85;;;;;;;;;;5029559;28;20029;-60
2022/08/04 05:41:21;;;;;;;4.47;3.45;;;;;;;;;;5028219;28;20032;-59
2022/08/04 05:43:48;;;;;;;4.15;3.40;;;;;;;;;;5029102;28;20029;-60
2022/08/04 05:46:16;;;;;;;4.28;3.47;;;;;;;;;;5028792;28;20040;-60
2022/08/04 05:48:43;;;;;;;7.72;4.88;;;;;;;;;;5028213;28;20037;-58
2022/08/04 05:51:10;;;;;;;7.20;5.13;;;;;;;;;;5033211;28;20040;-58
2022/08/04 05:53:37;;;;;;;7.85;5.70;;;;;;;;;;5028426;28;20034;-58
2022/08/04 05:56:05;;;;;;;7.15;4.90;;;;;;;;;;5022791;28;20338;-60
2022/08/04 05:58:31;;;;;;;6.78;4.45;;;;;;;;;;5025128;28;20029;-60
2022/08/04 06:00:59;;;;;;;4.90;4.07;;;;;;;;;;5027318;28;20056;-60
2022/08/04 06:03:27;;;;;;;5.43;4.05;;;;;;;;;;5025968;28;20025;-60
2022/08/04 06:05:53;;;;;;;5.10;4.25;;;;;;;;;;5027896;28;20591;-59
2022/08/04 06:08:19;;;;;;;8.35;5.28;;;;;;;;;;5027666;28;20036;-59
2022/08/04 06:10:46;;;;;;;6.65;4.32;;;;;;;;;;5026915;28;20025;-59
2022/08/04 06:13:15;;;;;;;6.18;4.57;;;;;;;;;;5025874;28;20021;-59
2022/08/04 06:15:44;;;;;;;6.50;4.00;;;;;;;;;;5026589;28;20021;-59
2022/08/04 06:18:12;;;;;;;4.50;3.72;;;;;;;;;;5028116;28;20029;-59
2022/08/04 06:20:39;;;;;;;5.18;3.40;;;;;;;;;;5026037;28;20032;-59
2022/08/04 06:23:12;;;;;;;6.47;4.18;;;;;;;;;;5025485;28;20025;-59
2022/08/04 06:25:45;;;;;;;21.88;12.00;;;;;;;;;;5022335;28;20021;-59
2022/08/04 06:28:12;;;;;;;22.13;13.63;;;;;;;;;;5023813;28;20025;-59
2022/08/04 06:30:39;;;;;;;14.82;7.55;;;;;;;;;;5025859;28;20021;-59
2022/08/04 06:33:23;;;;;;;11.10;5.93;;;;;;;;;;5020766;28;20087;-59
2022/08/04 06:35:52;;;;;;;8.60;5.43;;;;;;;;;;5022696;28;20090;-59
2022/08/04 06:38:19;;;;;;;;;;;;;;;;;;5024792;28;20036;-59
2022/08/04 06:40:44;;;;;;;6.35;4.10;;;;;;;;;;5031485;28;19948;-59
2022/08/04 06:43:10;;;;;;;7.75;4.40;;;;;;;;;;5020109;28;20069;-59
2022/08/04 06:45:37;;;;;;;6.13;3.80;;;;;;;;;;5025804;28;20033;-58
2022/08/04 06:48:05;;;;;;;5.55;3.50;;;;;;;;;;5025789;28;20033;-59
2022/08/04 06:50:34;;;;;;;5.45;3.20;;;;;;;;;;5024376;28;20044;-59
2022/08/04 06:52:59;;;;;;;5.13;3.40;;;;;;;;;;5023746;28;20030;-59
2022/08/04 06:55:25;;;;;;;4.47;3.45;;;;;;;;;;5022177;28;20172;-63
2022/08/04 06:57:53;;;;;;;6.28;3.33;;;;;;;;;;5030964;28;20709;-59
2022/08/04 07:00:18;;;;;;;4.80;3.58;;;;;;;;;;5022787;28;20036;-59
2022/08/04 07:02:46;;;;;;;4.72;3.72;;;;;;;;;;5021018;28;20511;-59
2022/08/04 07:05:13;;;;;;;6.73;4.50;;;;;;;;;;5023209;28;20026;-59
2022/08/04 07:07:39;;;;;;;6.97;4.88;;;;;;;;;;5031253;28;20403;-59
2022/08/04 07:10:06;;;;;;;6.03;4.47;;;;;;;;;;5022352;28;20095;-59
2022/08/04 07:12:33;;;;;;;6.35;3.97;;;;;;;;;;5026353;28;20108;-59
2022/08/04 07:14:59;;;;;;;5.57;3.67;;;;;;;;;;5029717;28;20267;-59
2022/08/04 07:17:25;;;;;;;4.85;3.35;;;;;;;;;;5024684;28;20033;-59
2022/08/04 07:19:51;;;;;;;5.25;3.17;;;;;;;;;;5026279;28;20112;-59
2022/08/04 07:22:18;;;;;;;4.35;3.22;;;;;;;;;;5021110;28;20058;-59
2022/08/04 07:24:44;;;;;;;5.45;2.88;;;;;;;;;;5024738;28;20033;-59
2022/08/04 07:27:10;;;;;;;4.20;2.83;;;;;;;;;;5026970;28;20025;-59
2022/08/04 07:29:37;;;;;;;5.70;2.80;;;;;;;;;;5024352;28;20240;-59
2022/08/04 07:32:04;;;;;;;4.60;3.10;;;;;;;;;;5023273;28;20033;-59
2022/08/04 07:34:30;;;;;;;3.65;3.28;;;;;;;;;;5025594;28;20037;-59
2022/08/04 07:36:58;;;;;;;3.28;2.95;;;;;;;;;;5022032;28;20026;-59
2022/08/04 07:39:27;;;;;;;5.10;3.20;;;;;;;;;;5025303;28;20426;-60
2022/08/04 07:41:53;;;;;;;3.88;3.00;;;;;;;;;;5021316;28;20430;-60
2022/08/04 07:44:19;;;;;;;4.55;3.20;;;;;;;;;;5020749;28;20037;-60
2022/08/04 07:46:45;;;;;;;4.22;3.22;;;;;;;;;;5026144;28;20406;-60
2022/08/04 07:49:11;;;;;;;4.28;3.65;;;;;;;;;;5021792;28;20068;-60
2022/08/04 07:51:38;;;;;;;5.55;3.28;;;;;;;;;;5017815;28;20120;-59
2022/08/04 07:54:06;;;;;;;6.60;3.25;;;;;;;;;;5019457;28;20038;-60
2022/08/04 07:56:34;;;;;;;6.10;3.40;;;;;;;;;;5024884;28;20037;-60
2022/08/04 07:59:00;;;;;;;3.83;3.00;;;;;;;;;;5028985;28;20021;-60
2022/08/04 08:01:26;;;;;;;3.47;3.15;;;;;;;;;;5025345;28;20022;-60
2022/08/04 08:03:53;;;;;;;5.30;3.03;;;;;;;;;;5027861;28;20109;-60
2022/08/04 08:06:19;;;;;;;4.70;3.45;;;;;;;;;;5028775;28;20027;-60
2022/08/04 08:08:45;;;;;;;3.58;3.20;;;;;;;;;;5029144;28;20021;-60
2022/08/04 08:11:10;;;;;;;3.97;3.30;;;;;;;;;;5026214;28;20026;-60
2022/08/04 08:13:37;;;;;;;3.38;3.00;;;;;;;;;;5027136;28;20014;-60
2022/08/04 08:16:04;;;;;;;7.45;3.28;;;;;;;;;;5027282;28;20084;-60
2022/08/04 08:18:30;;;;;;;8.18;3.53;;;;;;;;;;5026485;28;20399;-60
2022/08/04 08:20:56;;;;;;;3.42;3.13;;;;;;;;;;5031512;28;20024;-60
2022/08/04 08:23:21;;;;;;;4.15;2.80;;;;;;;;;;5028870;28;20409;-60
2022/08/04 08:25:47;;;;;;;7.45;3.17;;;;;;;;;;5026165;28;20049;-60
2022/08/04 08:28:14;;;;;;;7.25;3.55;;;;;;;;;;5025502;28;20470;-60
2022/08/04 08:30:40;;;;;;;5.60;3.25;;;;;;;;;;5027049;28;20043;-60
2022/08/04 08:33:08;;;;;;;4.13;3.40;;;;;;;;;;5028706;28;20029;-60
2022/08/04 08:36:03;;;;;;;4.15;3.17;;;;;;;;;;5029292;28;20033;-60
2022/08/04 08:38:34;;;;;;;8.43;3.53;;;;;;;;;;5024281;28;20041;-60
2022/08/04 08:41:23;;;;;;;5.13;3.45;;;;;;;;;;5022281;28;20028;-60
2022/08/04 08:44:26;;;;;;;3.85;3.45;;;;;;;;;;5029343;28;20440;-60
2022/08/04 08:47:02;;;;;;;4.95;3.50;;;;;;;;;;5023823;28;20037;-60
2022/08/04 08:49:42;;;;;;;6.22;3.35;;;;;;;;;;5023374;28;20025;-60
2022/08/04 08:52:16;;;;;;;5.68;3.60;;;;;;;;;;5022644;28;20048;-60
2022/08/04 08:55:11;;;;;;;5.70;3.35;;;;;;;;;;5026243;28;20372;-60
2022/08/04 08:57:50;;;;;;;7.78;3.80;;;;;;;;;;5034639;28;20511;-60
2022/08/04 09:00:55;;;;;;;5.03;3.80;;;;;;;;;;5024315;28;20036;-60
2022/08/04 09:03:39;;;;;;;9.65;3.80;;;;;;;;;;5022054;28;20041;-61
2022/08/04 09:06:30;;;;;;;4.72;3.30;;;;;;;;;;5030645;28;20029;-60
2022/08/04 09:09:08;;;;;;;4.10;3.65;;;;;;;;;;5024392;28;20021;-60
2022/08/04 09:12:08;;;;;;;7.55;3.33;;;;;;;;;;5026791;28;20052;-60
2022/08/04 09:14:54;;;;;;;5.78;3.97;;;;;;;;;;5029757;28;20515;-61
2022/08/04 09:17:44;;;;;;;5.40;3.63;;;;;;;;;;5026904;28;20043;-60
2022/08/04 09:20:20;;;;;;;4.88;3.80;;;;;;;;;;5024889;28;20556;-61
2022/08/04 09:22:53;;;;;;;5.65;3.58;;;;;;;;;;5028155;28;20033;-60
2022/08/04 09:25:24;;;;;;;5.25;3.75;;;;;;;;;;5027732;28;20056;-61
2022/08/04 09:27:54;;;;;;;4.80;3.55;;;;;;;;;;5026205;28;20021;-60
2022/08/04 09:30:28;;;;;;;4.65;3.92;;;;;;;;;;5028111;28;20089;-60
2022/08/04 09:33:14;;;;;;;4.88;3.25;;;;;;;;;;5025279;28;20021;-61
2022/08/04 09:35:53;;;;;;;6.65;3.58;;;;;;;;;;5026932;28;20029;-61
2022/08/04 09:38:28;;;;;;;4.28;3.65;;;;;;;;;;5024748;28;20594;-60
2022/08/04 09:41:21;;;;;;;4.95;3.83;;;;;;;;;;5025821;28;20043;-61
2022/08/04 09:44:05;;;;;;;6.15;3.80;;;;;;;;;;5026247;28;20110;-61
2022/08/04 09:46:44;;;;;;;5.63;3.90;;;;;;;;;;5028212;28;20021;-61
2022/08/04 09:49:26;;;;;;;6.80;4.05;;;;;;;;;;5029395;28;20484;-61
2022/08/04 09:51:54;;;;;;;5.63;3.70;;;;;;;;;;5019497;28;20125;-61
2022/08/04 09:54:44;;;;;;;7.53;3.75;;;;;;;;;;5023137;28;20029;-61
2022/08/04 09:57:30;;;;;;;6.88;3.65;;;;;;;;;;5024035;28;20377;-61
2022/08/04 10:00:02;;;;;;;5.60;3.40;;;;;;;;;;5023981;28;20475;-60
2022/08/04 10:02:35;;;;;;;4.78;3.80;;;;;;;;;;5019678;28;20047;-61
2022/08/04 10:05:04;;;;;;;4.55;3.40;;;;;;;;;;5027931;28;20025;-62
2022/08/04 10:07:38;;;;;;;;;;;;;;;;;;5027538;28;20424;-61
2022/08/04 10:10:28;;;;;;;7.03;3.25;;;;;;;;;;5035547;28;19920;-61
2022/08/04 10:12:53;;;;;;;7.18;3.50;;;;;;;;;;5027620;28;20048;-61
2022/08/04 10:15:27;;;;;;;3.80;3.30;;;;;;;;;;5026198;28;20022;-61
2022/08/04 10:17:53;;;;;;;4.88;3.65;;;;;;;;;;5025325;28;20098;-61
2022/08/04 10:20:36;;;;;;;7.55;3.70;;;;;;;;;;5024149;28;20476;-61
2022/08/04 10:23:10;;;;;;;4.72;3.53;;;;;;;;;;5024132;28;20031;-60
2022/08/04 10:26:04;;;;;;;5.07;3.30;;;;;;;;;;5028961;28;20162;-61
2022/08/04 10:28:31;;;;;;;4.13;3.35;;;;;;;;;;5025279;28;20044;-60
2022/08/04 10:31:05;;;;;;;5.13;3.47;;;;;;;;;;5028252;28;20033;-61
2022/08/04 10:33:41;;;;;;;4.82;3.42;;;;;;;;;;5023552;28;20025;-61
2022/08/04 10:36:11;;;;;;;5.55;3.50;;;;;;;;;;5024657;28;20037;-61
2022/08/04 10:38:43;;;;;;;4.68;3.63;;;;;;;;;;5026643;28;20487;-61
2022/08/04 10:41:23;;;;;;;5.10;3.20;;;;;;;;;;5024785;28;20589;-61
2022/08/04 10:44:04;;;;;;;3.35;3.05;;;;;;;;;;5019698;28;20044;-61
2022/08/04 10:46:51;;;;;;;3.85;2.80;;;;;;;;;;5016214;28;20457;-61
2022/08/04 10:49:42;;;;;;;4.28;2.65;;;;;;;;;;5020822;28;20034;-61
2022/08/04 10:52:15;;;;;;;3.47;2.67;;;;;;;;;;5017297;28;20053;-61
2022/08/04 10:54:47;;;;;;;4.78;2.38;;;;;;;;;;5016544;28;20021;-61
2022/08/04 10:57:28;;;;;;;3.10;2.13;;;;;;;;;;5017608;28;20092;-61
2022/08/04 11:00:05;;;;;;;2.53;2.33;;;;;;;;;;5017701;28;20033;-61
2022/08/04 11:03:10;;;;;;;3.30;2.30;;;;;;;;;;5023803;28;20033;-61
2022/08/04 11:05:47;;;;;;;3.80;2.13;;;;;;;;;;5028425;28;20025;-61
2022/08/04 11:08:22;;;;;;;4.15;2.17;;;;;;;;;;5026138;28;20422;-61
2022/08/04 11:11:02;;;;;;;5.53;1.85;;;;;;;;;;5024854;28;20083;-61
2022/08/04 11:14:04;;;;;;;4.57;2.20;;;;;;;;;;5024693;28;20349;-61
2022/08/04 11:16:40;;;;;;;3.72;2.13;;;;;;;;;;5003035;28;20463;-60
2022/08/04 11:19:16;;;;;;;6.28;3.97;;;;;;;;;;5024327;28;20116;-60
2022/08/04 11:21:52;;;;;;;2.95;2.45;;;;;;;;;;5023594;28;20087;-60
2022/08/04 11:24:24;;;;;;;3.03;2.50;;;;;;;;;;5024481;28;20117;-60
2022/08/04 11:27:03;;;;;;;6.43;2.50;;;;;;;;;;5027141;28;20112;-60
2022/08/04 11:30:02;;;;;;;3.60;2.58;;;;;;;;;;5027325;28;20041;-60
2022/08/04 11:32:48;;;;;;;3.20;2.90;;;;;;;;;;5024586;28;20052;-60
2022/08/04 11:35:36;;;;;;;3.80;2.60;;;;;;;;;;5024015;28;20033;-60
2022/08/04 11:38:11;;;;;;;3.33;2.22;;;;;;;;;;5029638;28;20026;-60
2022/08/04 11:40:42;;;;;;;5.28;2.85;;;;;;;;;;5025168;28;20542;-60
2022/08/04 11:43:15;;;;;;;4.13;2.30;;;;;;;;;;5022848;28;20032;-60
2022/08/04 11:46:07;;;;;;;2.60;2.40;;;;;;;;;;5028387;28;20029;-60
2022/08/04 11:48:40;;;;;;;5.43;2.58;;;;;;;;;;5024031;28;20033;-61
2022/08/04 11:51:08;;;;;;;4.95;2.40;;;;;;;;;;5028283;28;20044;-61
2022/08/04 11:53:36;;;;;;;6.05;2.63;;;;;;;;;;5022696;28;20028;-60
2022/08/04 11:56:04;;;;;;;2.88;2.10;;;;;;;;;;5011361;28;20112;-61
2022/08/04 11:58:29;;;;;;;;;;;;;;;;;;5024140;28;20033;-61
2022/08/04 12:01:00;;;;;;;5.40;2.60;;;;;;;;;;5028305;28;20286;-61
2022/08/04 12:03:34;;;;;;;3.95;2.30;;;;;;;;;;5030250;28;20025;-61
2022/08/04 12:06:13;;;;;;;4.43;2.67;;;;;;;;;;5032249;28;20036;-61
2022/08/04 12:09:06;;;;;;;4.05;2.40;;;;;;;;;;5019043;28;20030;-61
2022/08/04 12:11:53;;;;;;;3.00;2.70;;;;;;;;;;5029323;28;20060;-61
2022/08/04 12:14:57;;;;;;;3.90;3.03;;;;;;;;;;5028406;28;20030;-61
2022/08/04 12:17:34;;;;;;;5.30;2.83;;;;;;;;;;5018582;28;20056;-61
2022/08/04 12:20:05;;;;;;;6.60;2.80;;;;;;;;;;5027651;28;20028;-61
2022/08/04 12:22:36;;;;;;;3.03;2.40;;;;;;;;;;5027199;28;20037;-61
2022/08/04 12:25:08;;;;;;;4.28;2.58;;;;;;;;;;5026286;28;20041;-61
2022/08/04 12:28:00;;;;;;;3.08;2.40;;;;;;;;;;5024263;28;20113;-61
2022/08/04 12:30:31;;;;;;;2.85;2.63;;;;;;;;;;5024023;28;20072;-61
2022/08/04 12:33:05;;;;;;;4.85;2.78;;;;;;;;;;5021708;28;20029;-61
2022/08/04 12:35:55;;;;;;;4.72;2.50;;;;;;;;;;5027950;28;20043;-61
2022/08/04 12:38:25;;;;;;;3.15;2.50;;;;;;;;;;5024046;28;20442;-61
2022/08/04 12:40:53;;;;;;;4.47;2.63;;;;;;;;;;5025802;28;20033;-61
2022/08/04 12:43:28;;;;;;;2.63;2.42;;;;;;;;;;5024984;28;20080;-61
2022/08/04 12:46:03;;;;;;;3.08;2.78;;;;;;;;;;5028057;28;20120;-61
2022/08/04 12:48:31;;;;;;;3.85;2.70;;;;;;;;;;5023917;28;20483;-61
2022/08/04 12:50:57;;;;;;;4.25;2.65;;;;;;;;;;5024423;28;20025;-61
2022/08/04 12:53:32;;;;;;;4.57;2.88;;;;;;;;;;5024265;28;20036;-61
2022/08/04 12:55:59;;;;;;;4.00;2.63;;;;;;;;;;5026274;28;20109;-61
2022/08/04 12:58:27;;;;;;;2.93;2.47;;;;;;;;;;5024348;28;20045;-61
2022/08/04 13:00:57;;;;;;;3.03;2.70;;;;;;;;;;5028070;28;20033;-61
2022/08/04 13:03:28;;;;;;;5.47;3.00;;;;;;;;;;5025194;28;20025;-61
2022/08/04 13:05:54;;;;;;;6.25;2.60;;;;;;;;;;5026977;28;20103;-61
2022/08/04 13:08:20;;;;;;;2.90;2.60;;;;;;;;;;5025833;28;20095;-61
2022/08/04 13:10:49;;;;;;;4.95;3.20;;;;;;;;;;5025557;28;20025;-61
2022/08/04 13:13:24;;;;;;;3.13;2.50;;;;;;;;;;5025036;28;20036;-61
2022/08/04 13:16:04;;;;;;;3.60;3.20;;;;;;;;;;5027484;28;20021;-61
2022/08/04 13:18:46;;;;;;;4.63;3.05;;;;;;;;;;5023090;28;20495;-61
2022/08/04 13:21:19;;;;;;;8.57;2.67;;;;;;;;;;5022533;28;20068;-61
2022/08/04 13:23:45;;;;;;;2.95;2.65;;;;;;;;;;5026538;28;20429;-61
2022/08/04 13:26:15;;;;;;;7.05;2.83;;;;;;;;;;5025507;28;20071;-61
2022/08/04 13:28:43;;;;;;;3.72;2.50;;;;;;;;;;5024201;28;20033;-61
2022/08/04 13:31:16;;;;;;;3.53;2.90;;;;;;;;;;5024047;28;20461;-61
2022/08/04 13:33:44;;;;;;;4.20;2.63;;;;;;;;;;5024183;28;20017;-61
2022/08/04 13:36:11;;;;;;;3.90;3.03;;;;;;;;;;5024324;28;20040;-61
2022/08/04 13:38:43;;;;;;;3.83;2.90;;;;;;;;;;5024394;28;20065;-61
2022/08/04 13:41:10;;;;;;;5.78;2.80;;;;;;;;;;5019929;28;20076;-61
2022/08/04 13:43:45;;;;;;;2.67;2.47;;;;;;;;;;5020903;28;20049;-61
2022/08/04 13:46:18;;;;;;;3.63;2.70;;;;;;;;;;5028802;28;20112;-61
2022/08/04 13:48:45;;;;;;;3.10;2.80;;;;;;;;;;5020665;28;20091;-61
2022/08/04 13:51:11;;;;;;;3.67;2.80;;;;;;;;;;5021558;28;20526;-61
2022/08/04 13:53:39;;;;;;;3.20;2.63;;;;;;;;;;5021119;28;20038;-61
2022/08/04 13:56:09;;;;;;;3.65;2.85;;;;;;;;;;5022385;28;20037;-61
2022/08/04 13:58:40;;;;;;;3.00;2.70;;;;;;;;;;5026745;28;20056;-61
2022/08/04 14:01:15;;;;;;;2.70;2.38;;;;;;;;;;5027272;28;20025;-61
2022/08/04 14:03:53;;;;;;;2.65;2.45;;;;;;;;;;5022418;28;20013;-61
2022/08/04 14:06:33;;;;;;;;;;;;;;;;;;5026689;28;20105;-61
2022/08/04 14:09:08;;;;;;;4.55;2.70;;;;;;;;;;5025681;28;19913;-61
2022/08/04 14:11:33;;;;;;;3.95;2.70;;;;;;;;;;5024536;28;20103;-62
2022/08/04 14:14:00;;;;;;;4.00;2.80;;;;;;;;;;5024640;28;20096;-59
2022/08/04 14:16:26;;;;;;;5.68;3.03;;;;;;;;;;5018671;28;20037;-62
2022/08/04 14:19:00;;;;;;;4.28;2.80;;;;;;;;;;5026519;28;20026;-61
2022/08/04 14:21:25;;;;;;;3.72;2.75;;;;;;;;;;5024529;28;20022;-61
2022/08/04 14:23:55;;;;;;;2.97;2.60;;;;;;;;;;5024567;28;20037;-61
2022/08/04 14:26:27;;;;;;;6.13;2.90;;;;;;;;;;5025516;28;20029;-61
2022/08/04 14:28:56;;;;;;;4.30;3.15;;;;;;;;;;5021835;28;20483;-61
2022/08/04 14:31:23;;;;;;;4.25;2.80;;;;;;;;;;5023910;28;20038;-61
2022/08/04 14:33:51;;;;;;;4.90;2.75;;;;;;;;;;5024067;28;20056;-61
2022/08/04 14:36:17;;;;;;;4.40;2.60;;;;;;;;;;5023023;28;20083;-61
2022/08/04 14:38:55;;;;;;;4.78;3.00;;;;;;;;;;5020853;28;20030;-61
2022/08/04 14:41:27;;;;;;;3.67;2.90;;;;;;;;;;5020544;28;20515;-60
2022/08/04 14:43:57;;;;;;;4.07;2.70;;;;;;;;;;5025873;28;20044;-61
2022/08/04 14:46:25;;;;;;;4.25;3.08;;;;;;;;;;5021356;28;20538;-61
2022/08/04 14:48:59;;;;;;;4.65;2.78;;;;;;;;;;5023950;28;20033;-61
2022/08/04 14:51:25;;;;;;;3.10;2.80;;;;;;;;;;5018292;28;20092;-61
2022/08/04 14:53:50;;;;;;;3.05;2.83;;;;;;;;;;5026725;28;20025;-60
2022/08/04 14:56:16;;;;;;;4.57;2.97;;;;;;;;;;5025321;28;20109;-60
2022/08/04 14:58:41;;;;;;;4.35;2.75;;;;;;;;;;5026849;28;20108;-59
2022/08/04 15:01:09;;;;;;;3.88;2.78;;;;;;;;;;5025723;28;20030;-60
2022/08/04 15:03:39;;;;;;;5.82;2.90;;;;;;;;;;5026012;28;20304;-60
2022/08/04 15:06:05;;;;;;;4.15;2.92;;;;;;;;;;5025923;28;20021;-60
2022/08/04 15:08:30;;;;;;;5.03;2.78;;;;;;;;;;5023250;28;20032;-60
2022/08/04 15:10:57;;;;;;;5.07;3.08;;;;;;;;;;5029388;28;20021;-60
2022/08/04 15:13:26;;;;;;;7.47;3.13;;;;;;;;;;5022715;28;20033;-60
2022/08/04 15:15:52;;;;;;;6.15;3.00;;;;;;;;;;5024630;28;20088;-61
2022/08/04 15:18:18;;;;;;;5.55;3.47;;;;;;;;;;5023630;28;20472;-60
2022/08/04 15:20:44;;;;;;;3.97;3.30;;;;;;;;;;5025148;28;20057;-60
2022/08/04 15:23:10;;;;;;;4.05;3.60;;;;;;;;;;5024082;28;20053;-60
2022/08/04 15:25:42;;;;;;;4.15;3.00;;;;;;;;;;5024859;28;20026;-61
2022/08/04 15:28:15;;;;;;;4.68;3.20;;;;;;;;;;5019963;28;20040;-61
2022/08/04 15:30:41;;;;;;;6.57;3.05;;;;;;;;;;5020148;28;20025;-61
2022/08/04 15:33:08;;;;;;;3.75;3.05;;;;;;;;;;5023955;28;20502;-61